Data for 02/03/2014

Time Sea-Level Adjusted Pressure Absolute Pressure Temperature Relative Humidity Dew Point   
(mb) (inHg) (mb) (inHg) (C) (F) (%) (C) (F)
00:05 1012 29.88 841 24.83 -7.7 18.1 77 -11.1 12
00:10 1012 29.88 841 24.83 -7.7 18.1 77 -11.1 12.1
00:15 1012 29.88 841 24.83 -7.7 18.2 77 -11.1 12
00:20 1012 29.88 841 24.83 -7.7 18.1 76 -11.2 11.9
00:25 1012 29.88 841 24.83 -7.7 18.2 76 -11.2 11.8
00:30 1012 29.88 841 24.83 -7.7 18.1 76 -11.2 11.8
00:35 1012 29.88 841 24.83 -7.7 18.2 76 -11.2 11.8
00:40 1012 29.88 841 24.83 -7.7 18.2 76 -11.2 11.8
00:45 1012 29.88 841 24.83 -7.7 18.2 75 -11.3 11.7
00:50 1011 29.85 841 24.83 -7.6 18.3 75 -11.3 11.7
00:55 1011 29.85 841 24.83 -7.6 18.4 75 -11.3 11.7
01:00 1011 29.85 841 24.83 -7.4 18.6 74 -11.2 11.8
01:05 1011 29.85 841 24.83 -7.4 18.7 74 -11.2 11.8
01:10 1011 29.85 841 24.83 -7.4 18.7 74 -11.3 11.7
01:15 1011 29.85 840 24.81 -7.2 19 73 -11.2 11.8
01:20 1011 29.85 840 24.81 -7.1 19.3 72 -11.3 11.7
01:25 1011 29.85 840 24.81 -7 19.5 71 -11.4 11.6
01:30 1011 29.85 840 24.81 -6.8 19.7 71 -11.3 11.7
01:35 1011 29.85 840 24.81 -6.8 19.8 70 -11.4 11.4
01:40 1011 29.85 840 24.81 -6.7 20 70 -11.3 11.7
01:45 1011 29.85 840 24.81 -6.7 20 70 -11.3 11.7
01:50 1011 29.85 840 24.81 -6.6 20 70 -11.3 11.7
01:55 1011 29.85 840 24.81 -6.7 20 70 -11.2 11.8
02:00 1011 29.85 840 24.81 -6.7 19.9 72 -11 12.1
02:05 1011 29.85 840 24.81 -6.8 19.7 72 -11.2 11.9
02:10 1011 29.85 840 24.81 -6.9 19.6 72 -11.1 12
02:15 1011 29.85 840 24.81 -7 19.5 72 -11.2 11.8
02:20 1011 29.85 840 24.81 -6.9 19.6 72 -11.2 11.8
02:25 1011 29.85 840 24.81 -6.8 19.7 71 -11.3 11.7
02:30 1011 29.85 840 24.81 -6.8 19.8 70 -11.3 11.7
02:35 1011 29.85 840 24.81 -6.7 19.9 71 -11.2 11.9
02:40 1011 29.85 840 24.81 -6.7 19.9 71 -11.1 12
02:45 1011 29.85 840 24.81 -6.7 19.9 71 -11.2 11.8
02:50 1011 29.85 840 24.81 -6.7 20 71 -11.1 11.9
02:55 1011 29.85 840 24.81 -6.7 20 70 -11.3 11.7
03:00 1011 29.85 840 24.81 -6.7 19.9 71 -11.1 12
03:05 1011 29.85 840 24.81 -6.8 19.8 71 -11.1 12
03:10 1011 29.85 840 24.81 -6.7 19.9 71 -11.2 11.8
03:15 1011 29.85 840 24.81 -6.7 19.9 71 -11.1 12
03:20 1011 29.85 840 24.81 -6.7 19.9 71 -11.2 11.9
03:25 1011 29.85 840 24.81 -6.7 20 70 -11.3 11.6
03:30 1011 29.85 840 24.81 -6.6 20.1 69 -11.3 11.6
03:35 1011 29.85 840 24.81 -6.7 20 70 -11.3 11.6
03:40 1011 29.85 840 24.81 -6.7 19.9 70 -11.4 11.5
03:45 1011 29.85 840 24.81 -6.8 19.8 70 -11.4 11.5
03:50 1011 29.85 840 24.81 -6.8 19.7 70 -11.4 11.4
03:55 1011 29.85 840 24.81 -6.8 19.7 70 -11.4 11.4
04:00 1011 29.85 840 24.81 -6.8 19.7 70 -11.5 11.3
04:05 1011 29.85 840 24.81 -6.9 19.6 70 -11.4 11.4
04:10 1011 29.85 840 24.81 -7 19.4 71 -11.5 11.4
04:15 1011 29.85 840 24.81 -7.2 19.1 72 -11.5 11.3
04:20 1010 29.83 840 24.81 -7.4 18.7 72 -11.6 11.1
04:25 1010 29.83 839 24.78 -7.4 18.7 72 -11.6 11
04:30 1010 29.83 839 24.78 -7.3 18.8 72 -11.6 11.1
04:35 1010 29.83 839 24.78 -7.3 18.9 71 -11.7 11
04:40 1010 29.83 839 24.78 -7.3 19 71 -11.6 11
04:45 1010 29.83 839 24.78 -7.3 18.8 71 -11.7 10.9
04:50 1010 29.83 839 24.78 -7.4 18.8 71 -11.7 11
04:55 1010 29.83 839 24.78 -7.4 18.6 72 -11.7 11
05:00 1010 29.83 839 24.78 -7.5 18.6 72 -11.8 10.8
05:05 1010 29.83 839 24.78 -7.3 18.8 70 -11.9 10.7
05:10 1010 29.83 839 24.78 -7.1 19.2 69 -11.8 10.7
05:15 1010 29.83 839 24.78 -7.1 19.3 69 -11.8 10.7
05:20 1010 29.83 839 24.78 -7.1 19.1 70 -11.8 10.8
05:25 1010 29.83 839 24.78 -7.3 18.9 70 -11.8 10.7
05:30 1010 29.83 839 24.78 -7.5 18.6 71 -11.9 10.6
05:35 1010 29.83 839 24.78 -7.6 18.4 71 -12 10.4
05:40 1010 29.83 839 24.78 -7.6 18.4 71 -11.9 10.6
05:45 1010 29.83 839 24.78 -7.6 18.4 71 -12 10.4
05:50 1010 29.83 839 24.78 -7.6 18.3 70 -12.1 10.2
05:55 1010 29.83 840 24.81 -7.5 18.5 70 -12 10.3
06:00 1010 29.83 840 24.81 -7.5 18.5 72 -11.7 10.9
06:05 1010 29.83 840 24.81 -7.9 17.9 74 -11.8 10.8
06:10 1011 29.85 840 24.81 -8.4 17 76 -11.8 10.7
06:15 1011 29.85 840 24.81 -8.8 16.2 78 -12 10.4
06:20 1011 29.85 840 24.81 -9.2 15.5 79 -12.1 10.2
06:25 1011 29.85 840 24.81 -9.3 15.3 80 -12.1 10.2
06:30 1011 29.85 840 24.81 -9.4 15.1 81 -12.1 10.2
06:35 1011 29.85 840 24.81 -9.5 15 81 -12.1 10.3
06:40 1011 29.85 840 24.81 -9.5 14.8 82 -12 10.3
06:45 1011 29.85 840 24.81 -9.6 14.8 83 -12 10.4
06:50 1011 29.85 840 24.81 -9.5 15 82 -12 10.4
06:55 1011 29.85 840 24.81 -9.4 15.1 81 -12.1 10.3
07:00 1011 29.85 840 24.81 -9.5 14.9 82 -12 10.3
07:05 1011 29.85 840 24.81 -9.4 15.2 81 -12 10.4
07:10 1011 29.85 840 24.81 -9.4 15.1 79 -12.4 9.6
07:15 1011 29.85 840 24.81 -9.5 14.9 78 -12.7 9.1
07:20 1011 29.85 840 24.81 -9.8 14.4 78 -13 8.6
07:25 1011 29.85 840 24.81 -10 14 78 -13.1 8.4
07:30 1011 29.85 840 24.81 -10.1 13.9 78 -13.2 8.3
07:35 1011 29.85 840 24.81 -10.2 13.7 79 -13.2 8.2
07:40 1011 29.85 840 24.81 -10.4 13.4 79 -13.3 8.1
07:45 1011 29.85 840 24.81 -10.5 13.1 80 -13.3 8
07:50 1011 29.85 840 24.81 -10.6 12.9 80 -13.4 7.8
07:55 1011 29.85 840 24.81 -10.7 12.8 80 -13.5 7.6
08:00 1011 29.85 840 24.81 -10.7 12.7 79 -13.7 7.4
08:05 1011 29.85 840 24.81 -10.8 12.7 79 -13.8 7.2
08:10 1011 29.85 840 24.81 -10.8 12.6 77 -14 6.8
08:15 1011 29.85 840 24.81 -10.9 12.5 76 -14.2 6.4
08:20 1011 29.85 840 24.81 -11 12.3 76 -14.3 6.2
08:25 1011 29.85 840 24.81 -11.1 12.1 76 -14.5 6
08:30 1011 29.85 840 24.81 -11.2 11.9 76 -14.6 5.7
08:35 1011 29.85 840 24.81 -11.3 11.7 76 -14.8 5.4
08:40 1010 29.83 840 24.81 -11.4 11.5 75 -14.9 5.1
08:45 1010 29.83 840 24.81 -11.4 11.4 75 -15.1 4.8
08:50 1010 29.83 839 24.78 -11.5 11.2 75 -15.1 4.8
08:55 1010 29.83 839 24.78 -11.6 11.2 75 -15.2 4.6
09:00 1010 29.83 840 24.81 -11.7 11 75 -15.3 4.4
09:05 1011 29.85 840 24.81 -11.7 11 74 -15.4 4.3
09:10 1011 29.85 840 24.81 -11.7 11 74 -15.5 4.1
09:15 1011 29.85 840 24.81 -11.6 11.1 72 -15.7 3.7
09:20 1011 29.85 840 24.81 -11.5 11.3 71 -15.7 3.8
09:25 1011 29.85 840 24.81 -11.4 11.5 71 -15.7 3.7
09:30 1011 29.85 841 24.83 -11.3 11.6 71 -15.5 4.1
09:35 1012 29.88 841 24.83 -11.5 11.4 72 -15.5 4.1
09:40 1012 29.88 841 24.83 -11.5 11.2 72 -15.7 3.7
09:45 1012 29.88 841 24.83 -11.5 11.3 72 -15.6 4
09:50 1012 29.88 841 24.83 -11.5 11.3 72 -15.6 4
09:55 1012 29.88 841 24.83 -11.5 11.2 71 -15.8 3.5
10:00 1012 29.88 841 24.83 -11.6 11.2 70 -15.9 3.3
10:05 1012 29.88 841 24.83 -11.5 11.2 70 -16 3.3
10:10 1012 29.88 841 24.83 -11.5 11.3 70 -15.9 3.4
10:15 1012 29.88 841 24.83 -11.6 11.2 70 -15.9 3.3
10:20 1012 29.88 841 24.83 -11.6 11.2 70 -16.1 3.1
10:25 1012 29.88 841 24.83 -11.7 11 70 -16.1 3
10:30 1012 29.88 841 24.83 -11.7 11 69 -16.2 2.8
10:35 1012 29.88 841 24.83 -11.6 11.2 69 -16.2 2.8
10:40 1012 29.88 841 24.83 -11.7 11 69 -16.2 2.8
10:45 1012 29.88 841 24.83 -11.8 10.9 69 -16.3 2.6
10:50 1012 29.88 841 24.83 -11.7 10.9 70 -16.2 2.9
10:55 1012 29.88 841 24.83 -11.8 10.8 71 -16.1 3.1
11:00 1012 29.88 841 24.83 -11.7 10.9 69 -16.3 2.7
11:05 1012 29.88 841 24.83 -11.8 10.8 70 -16.2 2.9
11:10 1012 29.88 841 24.83 -11.9 10.6 69 -16.5 2.3
11:15 1012 29.88 841 24.83 -11.9 10.6 70 -16.4 2.6
11:20 1012 29.88 841 24.83 -11.9 10.6 69 -16.5 2.2
11:25 1012 29.88 841 24.83 -11.9 10.5 68 -16.6 2.1
11:30 1012 29.88 841 24.83 -11.9 10.7 68 -16.7 2
11:35 1012 29.88 841 24.83 -11.9 10.6 68 -16.7 2
11:40 1012 29.88 841 24.83 -11.9 10.7 68 -16.7 1.9
11:45 1012 29.88 841 24.83 -11.8 10.8 67 -16.7 2
11:50 1012 29.88 841 24.83 -11.9 10.6 68 -16.7 2
11:55 1012 29.88 841 24.83 -11.8 10.8 67 -16.7 1.9
12:00 1012 29.88 841 24.83 -11.7 11 67 -16.7 2
12:05 1012 29.88 841 24.83 -11.8 10.7 67 -16.7 1.9
12:10 1012 29.88 841 24.83 -12 10.4 68 -16.8 1.8
12:15 1012 29.88 841 24.83 -12.1 10.2 68 -16.9 1.5
12:20 1012 29.88 841 24.83 -12.2 10.1 67 -17 1.3
12:25 1012 29.88 841 24.83 -12.1 10.2 67 -17.1 1.2
12:30 1012 29.88 841 24.83 -12.1 10.3 66 -17.1 1.2
12:35 1012 29.88 841 24.83 -12.1 10.2 65 -17.3 0.8
12:40 1012 29.88 841 24.83 -12.2 10.1 65 -17.5 0.6
12:45 1012 29.88 841 24.83 -12.1 10.2 65 -17.4 0.7
12:50 1012 29.88 841 24.83 -12.3 9.9 65 -17.6 0.3
12:55 1012 29.88 841 24.83 -12.4 9.7 65 -17.6 0.3
13:00 1012 29.88 841 24.83 -12.5 9.4 66 -17.6 0.3
13:05 1012 29.88 841 24.83 -12.6 9.3 66 -17.7 0.2
13:10 1012 29.88 841 24.83 -12.6 9.4 64 -18 -0.4
13:15 1012 29.88 841 24.83 -12.8 8.9 67 -17.8 -0
13:20 1012 29.88 841 24.83 -13 8.7 67 -17.8 -0.1
13:25 1012 29.88 841 24.83 -12.9 8.7 68 -17.7 0.2
13:30 1012 29.88 841 24.83 -13 8.7 69 -17.5 0.5
13:35 1012 29.88 841 24.83 -13.1 8.5 71 -17.3 0.9
13:40 1012 29.88 841 24.83 -13.3 8 72 -17.3 0.9
13:45 1012 29.88 841 24.83 -13.3 8 73 -17.2 1.1
13:50 1012 29.88 841 24.83 -13.3 8.1 71 -17.4 0.6
13:55 1012 29.88 841 24.83 -13.4 7.8 72 -17.5 0.6
14:00 1012 29.88 841 24.83 -13.5 7.8 71 -17.6 0.3
14:05 1012 29.88 841 24.83 -13.6 7.6 72 -17.6 0.3
14:10 1012 29.88 841 24.83 -13.7 7.4 72 -17.6 0.2
14:15 1012 29.88 841 24.83 -13.6 7.5 71 -17.8 -0.1
14:20 1012 29.88 841 24.83 -13.6 7.5 69 -18.2 -0.7
14:25 1012 29.88 841 24.83 -13.7 7.4 68 -18.3 -0.9
14:30 1012 29.88 841 24.83 -13.7 7.4 67 -18.5 -1.3
14:35 1012 29.88 841 24.83 -13.7 7.3 69 -18.3 -0.9
14:40 1012 29.88 841 24.83 -13.7 7.3 70 -18.2 -0.7
14:45 1012 29.88 841 24.83 -13.7 7.4 67 -18.5 -1.3
14:50 1012 29.88 841 24.83 -13.7 7.3 67 -18.6 -1.4
14:55 1012 29.88 841 24.83 -13.8 7.2 69 -18.3 -0.9
15:00 1012 29.88 841 24.83 -13.8 7.1 69 -18.3 -0.9
15:05 1012 29.88 842 24.86 -13.9 7.1 71 -18.1 -0.5
15:10 1012 29.88 842 24.86 -13.9 6.9 71 -18.1 -0.5
15:15 1012 29.88 842 24.86 -14 6.8 71 -18.1 -0.6
15:20 1012 29.88 842 24.86 -14 6.7 70 -18.3 -1
15:25 1012 29.88 842 24.86 -14 6.7 71 -18.3 -0.9
15:30 1012 29.88 842 24.86 -14 6.8 71 -18.1 -0.6
15:35 1012 29.88 842 24.86 -14.1 6.6 71 -18.3 -1
15:40 1013 29.91 842 24.86 -14.1 6.7 71 -18.2 -0.8
15:45 1013 29.91 842 24.86 -14 6.8 69 -18.4 -1.2
15:50 1013 29.91 842 24.86 -14.2 6.5 70 -18.6 -1.5
15:55 1013 29.91 842 24.86 -14.3 6.4 72 -18.2 -0.7
16:00 1013 29.91 842 24.86 -14.2 6.4 70 -18.6 -1.5
16:05 1013 29.91 842 24.86 -14.3 6.2 70 -18.6 -1.5
16:10 1013 29.91 842 24.86 -14.3 6.4 69 -18.8 -1.8
16:15 1013 29.91 842 24.86 -14.2 6.4 68 -18.9 -2
16:20 1013 29.91 842 24.86 -14.2 6.4 67 -19.1 -2.4
16:25 1013 29.91 842 24.86 -14.2 6.5 66 -19.3 -2.7
16:30 1013 29.91 843 24.89 -14.3 6.3 65 -19.4 -3
16:35 1013 29.91 843 24.89 -14.3 6.2 65 -19.6 -3.3
16:40 1013 29.91 843 24.89 -14.4 6.1 67 -19.2 -2.6
16:45 1014 29.94 843 24.89 -14.6 5.8 67 -19.4 -2.9
16:50 1014 29.94 843 24.89 -14.7 5.6 68 -19.3 -2.7
16:55 1014 29.94 843 24.89 -14.8 5.4 68 -19.4 -3
17:00 1014 29.94 843 24.89 -14.8 5.3 67 -19.6 -3.2
17:05 1014 29.94 843 24.89 -14.9 5.1 68 -19.5 -3.1
17:10 1014 29.94 843 24.89 -15 5 69 -19.5 -3.1
17:15 1014 29.94 843 24.89 -15.1 4.9 69 -19.6 -3.2
17:20 1014 29.94 843 24.89 -15.1 4.8 68 -19.7 -3.5
17:25 1014 29.94 843 24.89 -15.2 4.7 67 -20 -4
17:30 1014 29.94 843 24.89 -15.3 4.5 67 -20 -4
17:35 1014 29.94 843 24.89 -15.3 4.5 67 -20.1 -4.2
17:40 1014 29.94 844 24.92 -15.3 4.4 67 -20.1 -4.2
17:45 1014 29.94 844 24.92 -15.4 4.3 65 -20.6 -5.1
17:50 1015 29.97 844 24.92 -15.4 4.3 64 -20.7 -5.2
17:55 1015 29.97 844 24.92 -15.5 4.2 65 -20.6 -5
18:00 1015 29.97 844 24.92 -15.5 4.1 66 -20.5 -4.8
18:05 1015 29.97 844 24.92 -15.6 4 67 -20.4 -4.7
18:10 1015 29.97 844 24.92 -15.7 3.8 69 -20.2 -4.3
18:15 1015 29.97 844 24.92 -15.8 3.7 71 -19.9 -3.9
18:20 1015 29.97 844 24.92 -15.9 3.4 73 -19.6 -3.3
18:25 1015 29.97 844 24.92 -16 3.2 73 -19.7 -3.5
18:30 1015 29.97 844 24.92 -16.1 3.1 75 -19.6 -3.2
18:35 1015 29.97 844 24.92 -16.2 2.9 75 -19.6 -3.3
18:40 1015 29.97 844 24.92 -16.2 2.9 74 -19.8 -3.7
18:45 1015 29.97 844 24.92 -16.2 2.9 73 -20 -4
18:50 1015 29.97 844 24.92 -16.2 2.8 72 -20.1 -4.2
18:55 1015 29.97 845 24.95 -16.2 2.8 71 -20.3 -4.5
19:00 1015 29.97 845 24.95 -16.3 2.6 71 -20.4 -4.8
19:05 1015 29.97 845 24.95 -16.4 2.6 71 -20.4 -4.8
19:10 1015 29.97 845 24.95 -16.4 2.5 70 -20.7 -5.3
19:15 1015 29.97 845 24.95 -16.4 2.5 70 -20.7 -5.3
19:20 1016 30 845 24.95 -16.4 2.5 69 -20.9 -5.5
19:25 1016 30 845 24.95 -16.4 2.4 69 -20.9 -5.6
19:30 1016 30 845 24.95 -16.5 2.4 68 -21.1 -5.9
19:35 1016 30 845 24.95 -16.5 2.3 67 -21.3 -6.3
19:40 1016 30 845 24.95 -16.5 2.2 68 -21.1 -5.9
19:45 1016 30 845 24.95 -16.6 2.1 69 -21.1 -6
19:50 1016 30 845 24.95 -16.7 2 69 -21 -5.9
19:55 1016 30 845 24.95 -16.8 1.8 71 -20.9 -5.7
20:00 1016 30 845 24.95 -16.9 1.7 71 -21 -5.9
20:05 1016 30 845 24.95 -16.9 1.5 69 -21.3 -6.3
20:10 1016 30 845 24.95 -17 1.4 70 -21.3 -6.3
20:15 1016 30 845 24.95 -17.1 1.3 69 -21.5 -6.6
20:20 1016 30 845 24.95 -17.2 1 69 -21.7 -7
20:25 1016 30 845 24.95 -17.3 1 68 -21.8 -7.3
20:30 1016 30 845 24.95 -17.3 0.9 68 -21.9 -7.5
20:35 1016 30 845 24.95 -17.3 0.9 68 -22 -7.5
20:40 1016 30 845 24.95 -17.3 0.8 66 -22.2 -7.9
20:45 1016 30 845 24.95 -17.3 0.8 67 -22.1 -7.8
20:50 1016 30 846 24.98 -17.4 0.7 67 -22.1 -7.8
20:55 1016 30 846 24.98 -17.4 0.8 67 -22.1 -7.7
21:00 1016 30 846 24.98 -17.3 0.8 66 -22.3 -8.1
21:05 1016 30 846 24.98 -17.3 0.8 67 -22.1 -7.8
21:10 1017 30.03 846 24.98 -17.3 0.8 66 -22.2 -7.9
21:15 1017 30.03 846 24.98 -17.3 0.8 66 -22.2 -8
21:20 1017 30.03 846 24.98 -17.3 0.8 67 -22.1 -7.8
21:25 1017 30.03 846 24.98 -17.4 0.7 66 -22.3 -8.1
21:30 1017 30.03 846 24.98 -17.4 0.7 65 -22.5 -8.4
21:35 1017 30.03 846 24.98 -17.3 0.8 65 -22.5 -8.5
21:40 1017 30.03 846 24.98 -17.3 0.8 64 -22.6 -8.7
21:45 1017 30.03 846 24.98 -17.3 0.9 64 -22.6 -8.6
21:50 1017 30.03 846 24.98 -17.3 0.8 65 -22.4 -8.4
21:55 1017 30.03 846 24.98 -17.4 0.7 66 -22.3 -8.1
22:00 1017 30.03 846 24.98 -17.4 0.6 66 -22.4 -8.3
22:05 1017 30.03 846 24.98 -17.5 0.6 67 -22.2 -8
22:10 1017 30.03 846 24.98 -17.5 0.5 67 -22.3 -8.1
22:15 1017 30.03 846 24.98 -17.5 0.5 67 -22.3 -8.1
22:20 1017 30.03 846 24.98 -17.5 0.4 68 -22.2 -7.9
22:25 1017 30.03 846 24.98 -17.6 0.4 66 -22.4 -8.3
22:30 1017 30.03 846 24.98 -17.6 0.4 67 -22.4 -8.2
22:35 1017 30.03 847 25.01 -17.6 0.3 67 -22.3 -8.2
22:40 1017 30.03 847 25.01 -17.7 0.2 68 -22.2 -7.9
22:45 1017 30.03 847 25.01 -17.7 0.1 69 -22.1 -7.9
22:50 1018 30.06 847 25.01 -17.8 -0.1 69 -22.1 -7.8
22:55 1018 30.06 847 25.01 -17.9 -0.2 70 -22.1 -7.8
23:00 1018 30.06 847 25.01 -17.9 -0.2 70 -22.1 -7.9
23:05 1018 30.06 847 25.01 -17.9 -0.2 69 -22.2 -8
23:10 1018 30.06 847 25.01 -17.9 -0.3 69 -22.2 -8
23:15 1018 30.06 847 25.01 -17.9 -0.3 68 -22.5 -8.4
23:20 1018 30.06 847 25.01 -18 -0.4 69 -22.4 -8.4
23:25 1018 30.06 847 25.01 -18 -0.4 69 -22.5 -8.5
23:30 1018 30.06 847 25.01 -18 -0.5 68 -22.6 -8.7
23:35 1018 30.06 847 25.01 -18.1 -0.5 68 -22.5 -8.6
23:40 1018 30.06 847 25.01 -18.1 -0.5 68 -22.6 -8.6
23:45 1018 30.06 847 25.01 -18.1 -0.5 68 -22.7 -8.8
23:50 1018 30.06 847 25.01 -18.1 -0.5 68 -22.6 -8.6
23:55 1018 30.06 847 25.01 -18 -0.4 67 -22.7 -8.8
24:00 1018 30.06 847 25.01 -18 -0.4 69 -22.4 -8.3